Ubc Bremen — P3ZA7 — position and weather

sailwx.info

Track history (hours):
 
Tides and Currents Weather Stations Pressure Air Temp Water Temp Dewpoint Dewpoint Depression Visibility Wind Speed Wind Dir Waves Ship Positions

Ubc Bremen

Last reported at 2014-Dec-08 18:07 UTC. Time now 2014-Dec-23 03:41 UTC.
Position S 35°05' W 055°34'.
Warning: this ship's position is 14 days out of date.

Length 154 m; draft 8.8 m.

Type: Cargo ship. MMSI: 21260200.

Date/timePositionNaut miles runAvg speedWind from/ knotsBaromVisibWave heightAir tempDewpointWater temp
2014-Dec-08 18:07S 35°05' W 055°34'712.7
2014-Dec-08 17:33S 35°05' W 055°43'1313.0
2014-Dec-08 16:34S 35°01' W 055°58'8 8.3
2014-Dec-08 15:33S 35°06' W 056°06'1211.5
2014-Dec-08 14:29S 35°10' W 056°21'1112.2
2014-Dec-08 13:34S 35°10' W 056°34'1312.7
2014-Dec-08 12:33S 35°10' W 056°50'1212.3
2014-Dec-08 11:33S 35°07' W 057°04'1413.8
2014-Dec-08 10:33S 34°57' W 057°16'1313.1
2014-Dec-08 09:33S 34°48' W 057°28'1312.6
2014-Dec-08 08:33S 34°44' W 057°43'1313.0
2014-Dec-08 07:34S 34°41' W 057°58'1110.8
2014-Dec-08 06:34S 34°30' W 057°57'1111.0
2014-Dec-08 05:34S 34°20' W 058°01'1211.9
2014-Dec-08 04:34S 34°11' W 058°12'1212.1
2014-Dec-08 03:33S 34°02' W 058°21'10 9.7
2014-Dec-08 02:33S 33°53' W 058°25'0 0.0
2014-Dec-08 01:33S 33°53' W 058°25'0 0.0
2014-Dec-08 00:30S 33°53' W 058°25'0 0.0
2014-Dec-07 18:16S 33°53' W 058°25'0 0.0
2014-Dec-07 10:28S 33°53' W 058°25'0 0.0
2014-Dec-07 06:21S 33°53' W 058°25'0 0.0
2014-Dec-07 05:21S 33°53' W 058°25'0 0.0
2014-Dec-07 04:30S 33°53' W 058°25'0 0.0
2014-Dec-07 03:29S 33°53' W 058°25'0 0.0
2014-Dec-07 02:32S 33°53' W 058°25'1 0.6
2014-Dec-07 00:16S 33°52' W 058°26'0 0.0
2014-Dec-06 23:10S 33°52' W 058°26'0 0.0
2014-Dec-06 18:27S 33°52' W 058°26'0 0.0
2014-Dec-06 12:25S 33°52' W 058°26'0 0.0
2014-Dec-06 11:16S 33°52' W 058°26'0 0.0
2014-Dec-06 10:31S 33°52' W 058°26'0 0.0
2014-Dec-06 09:22S 33°52' W 058°26'0 0.0
2014-Dec-06 08:25S 33°52' W 058°26'0 0.0
2014-Dec-06 07:31S 33°52' W 058°26'0 0.0
2014-Dec-06 06:25S 33°52' W 058°26'0 0.0
2014-Dec-06 05:31S 33°52' W 058°26'0 0.0
2014-Dec-06 04:33S 33°52' W 058°26'0 0.0
2014-Dec-06 03:32S 33°52' W 058°26'0 0.0
2014-Dec-06 02:32S 33°52' W 058°26'0 0.0
2014-Dec-06 01:29S 33°52' W 058°26'0 0.0
2014-Dec-06 00:14S 33°52' W 058°26'0 0.0
2014-Dec-05 23:28S 33°52' W 058°26'0 0.0
2014-Dec-05 22:27S 33°52' W 058°26'34 3.1
2014-Dec-05 11:33S 33°54' W 059°06'1010.4
2014-Dec-05 10:34S 33°48' W 059°15'8 7.9
2014-Dec-05 09:33S 33°44' W 059°24'9 9.3
2014-Dec-05 08:33S 33°39' W 059°33'25 3.9
2014-Dec-05 02:12S 33°28' W 059°60'0 0.0
2014-Dec-04 10:10S 33°28' W 059°60'0 0.0
2014-Dec-04 08:23S 33°28' W 059°60'  
Track history (hours):
 
Tides and Currents Weather Stations Pressure Air Temp Water Temp Dewpoint Dewpoint Depression Visibility Wind Speed Wind Dir Waves Ship Positions

Ubc Bremen

Last reported at 2014-Dec-08 18:07 UTC. Time now 2014-Dec-23 03:41 UTC.
Position S 35°05' W 055°34'.
Warning: this ship's position is 14 days out of date.

Length 154 m; draft 8.8 m.

Type: Cargo ship. MMSI: 21260200.

Date/timePositionNaut miles runAvg speedWind from/ knotsBaromVisibWave heightAir tempDewpointWater temp
2014-Dec-08 18:07S 35°05' W 055°34'712.7
2014-Dec-08 17:33S 35°05' W 055°43'1313.0
2014-Dec-08 16:34S 35°01' W 055°58'8 8.3
2014-Dec-08 15:33S 35°06' W 056°06'1211.5
2014-Dec-08 14:29S 35°10' W 056°21'1112.2
2014-Dec-08 13:34S 35°10' W 056°34'1312.7
2014-Dec-08 12:33S 35°10' W 056°50'1212.3
2014-Dec-08 11:33S 35°07' W 057°04'1413.8
2014-Dec-08 10:33S 34°57' W 057°16'1313.1
2014-Dec-08 09:33S 34°48' W 057°28'1312.6
2014-Dec-08 08:33S 34°44' W 057°43'1313.0
2014-Dec-08 07:34S 34°41' W 057°58'1110.8
2014-Dec-08 06:34S 34°30' W 057°57'1111.0
2014-Dec-08 05:34S 34°20' W 058°01'1211.9
2014-Dec-08 04:34S 34°11' W 058°12'1212.1
2014-Dec-08 03:33S 34°02' W 058°21'10 9.7
2014-Dec-08 02:33S 33°53' W 058°25'0 0.0
2014-Dec-08 01:33S 33°53' W 058°25'0 0.0
2014-Dec-08 00:30S 33°53' W 058°25'0 0.0
2014-Dec-07 18:16S 33°53' W 058°25'0 0.0
2014-Dec-07 10:28S 33°53' W 058°25'0 0.0
2014-Dec-07 06:21S 33°53' W 058°25'0 0.0
2014-Dec-07 05:21S 33°53' W 058°25'0 0.0
2014-Dec-07 04:30S 33°53' W 058°25'0 0.0
2014-Dec-07 03:29S 33°53' W 058°25'0 0.0
2014-Dec-07 02:32S 33°53' W 058°25'1 0.6
2014-Dec-07 00:16S 33°52' W 058°26'0 0.0
2014-Dec-06 23:10S 33°52' W 058°26'0 0.0
2014-Dec-06 18:27S 33°52' W 058°26'0 0.0
2014-Dec-06 12:25S 33°52' W 058°26'0 0.0
2014-Dec-06 11:16S 33°52' W 058°26'0 0.0
2014-Dec-06 10:31S 33°52' W 058°26'0 0.0
2014-Dec-06 09:22S 33°52' W 058°26'0 0.0
2014-Dec-06 08:25S 33°52' W 058°26'0 0.0
2014-Dec-06 07:31S 33°52' W 058°26'0 0.0
2014-Dec-06 06:25S 33°52' W 058°26'0 0.0
2014-Dec-06 05:31S 33°52' W 058°26'0 0.0
2014-Dec-06 04:33S 33°52' W 058°26'0 0.0
2014-Dec-06 03:32S 33°52' W 058°26'0 0.0
2014-Dec-06 02:32S 33°52' W 058°26'0 0.0
2014-Dec-06 01:29S 33°52' W 058°26'0 0.0
2014-Dec-06 00:14S 33°52' W 058°26'0 0.0
2014-Dec-05 23:28S 33°52' W 058°26'0 0.0
2014-Dec-05 22:27S 33°52' W 058°26'34 3.1
2014-Dec-05 11:33S 33°54' W 059°06'1010.4
2014-Dec-05 10:34S 33°48' W 059°15'8 7.9
2014-Dec-05 09:33S 33°44' W 059°24'9 9.3
2014-Dec-05 08:33S 33°39' W 059°33'25 3.9
2014-Dec-05 02:12S 33°28' W 059°60'0 0.0
2014-Dec-04 10:10S 33°28' W 059°60'0 0.0
2014-Dec-04 08:23S 33°28' W 059°60'  

Dump ship's entire track history